Time;durP1;ratioP1;P1;durP2;ratioP2;P2;SDS_P1;SDS_P2;PMS_P1;PMS_P2;Temp;Humidity;BMP_temperature;BMP_pressure;BME280_temperature;BME280_humidity;BME280_pressure;Samples;Min_cycle;Max_cycle;Signal;HPM_P1;HPM_P2
2023/05/13 00:01:17;;;;;;;4.07;2.27;;;23.60;99.90;;;;;;5072774;28;20172;-74
2023/05/13 00:03:45;;;;;;;8.20;2.60;;;23.20;99.90;;;;;;5072419;28;20538;-74
2023/05/13 00:06:13;;;;;;;5.50;2.43;;;23.70;99.90;;;;;;5072140;28;20262;-73
2023/05/13 00:08:41;;;;;;;4.83;2.50;;;23.90;99.90;;;;;;5072042;28;20184;-75
2023/05/13 00:11:09;;;;;;;6.73;2.30;;;24.10;99.90;;;;;;5072664;28;20187;-75
2023/05/13 00:13:37;;;;;;;6.33;2.10;;;24.10;99.90;;;;;;5072082;28;20176;-73
2023/05/13 00:16:05;;;;;;;4.33;2.40;;;24.20;99.90;;;;;;5072426;28;20176;-73
2023/05/13 00:21:54;;;;;;;4.57;1.97;;;24.40;99.90;;;;;;5053742;28;20221;-68
2023/05/13 00:24:22;;;;;;;3.40;2.00;;;24.60;99.90;;;;;;5055974;28;20185;-68
2023/05/13 00:26:50;;;;;;;6.00;2.30;;;25.10;99.90;;;;;;5056154;28;20283;-68
2023/05/13 00:29:17;;;;;;;4.57;2.10;;;25.20;99.90;;;;;;5054516;28;20224;-68
2023/05/13 00:31:45;;;;;;;4.73;1.70;;;25.40;99.90;;;;;;5055965;28;20540;-69
2023/05/13 00:34:13;;;;;;;7.57;2.40;;;24.40;99.90;;;;;;5055708;28;20669;-68
2023/05/13 00:36:41;;;;;;;5.13;2.43;;;23.30;99.90;;;;;;5055847;28;20264;-68
2023/05/13 00:39:08;;;;;;;5.93;2.63;;;22.80;99.90;;;;;;5055609;28;20172;-68
2023/05/13 00:41:37;;;;;;;9.40;2.07;;;22.90;99.90;;;;;;5055721;28;20169;-68
2023/05/13 00:44:05;;;;;;;4.97;2.00;;;22.50;99.90;;;;;;5055772;28;20185;-69
2023/05/13 00:46:33;;;;;;;5.97;2.03;;;22.20;99.90;;;;;;5055718;28;20254;-67
2023/05/13 00:49:01;;;;;;;7.87;2.83;;;21.80;99.90;;;;;;5055404;28;20331;-68
2023/05/13 00:51:31;;;;;;;6.53;2.20;;;21.50;99.90;;;;;;5055628;28;20180;-68
2023/05/13 00:53:59;;;;;;;7.83;2.27;;;21.50;99.90;;;;;;5055630;28;20177;-68
2023/05/13 00:56:27;;;;;;;5.23;1.93;;;21.40;99.90;;;;;;5055513;28;20248;-69
2023/05/13 00:58:55;;;;;;;4.70;2.27;;;21.50;99.90;;;;;;5054203;28;20511;-68
2023/05/13 01:01:41;;;;;;;6.93;2.73;;;21.90;99.90;;;;;;5055223;28;20230;-67
2023/05/13 01:04:09;;;;;;;6.57;2.10;;;23.10;99.90;;;;;;5055498;28;20627;-70
2023/05/13 01:06:51;;;;;;;6.40;1.93;;;24.20;99.90;;;;;;5055478;28;20177;-69
2023/05/13 01:09:37;;;;;;;4.67;2.13;;;25.10;99.90;;;;;;5055031;28;20582;-68
2023/05/13 01:12:11;;;;;;;7.67;2.40;;;25.40;99.90;;;;;;5055409;28;20173;-68
2023/05/13 01:14:57;;;;;;;5.43;2.20;;;26.10;99.90;;;;;;5055409;28;20349;-68
2023/05/13 01:17:32;;;;;;;6.80;1.97;;;24.80;99.90;;;;;;5055068;28;20165;-69
2023/05/13 01:20:03;;;;;;;4.87;1.90;;;24.70;99.90;;;;;;5055093;28;20617;-69
2023/05/13 01:22:31;;;;;;;2.60;1.80;;;24.90;99.90;;;;;;5054993;28;20173;-68
2023/05/13 01:24:59;;;;;;;4.07;2.20;;;24.40;99.90;;;;;;5054970;28;20227;-68
2023/05/13 01:27:27;;;;;;;2.97;2.33;;;24.70;99.90;;;;;;5054824;28;20634;-68
2023/05/13 01:29:56;;;;;;;5.03;1.90;;;24.60;99.90;;;;;;5054880;28;20213;-68
2023/05/13 01:32:23;;;;;;;6.40;1.80;;;25.00;99.90;;;;;;5054244;28;20168;-69
2023/05/13 01:34:53;;;;;;;6.53;1.83;;;25.60;99.90;;;;;;5054654;28;20619;-69
2023/05/13 01:37:20;;;;;;;8.47;2.30;;;26.60;99.90;;;;;;5054862;28;20684;-68
2023/05/13 01:39:48;;;;;;;2.90;1.80;;;27.30;99.90;;;;;;5054500;28;20173;-70
2023/05/13 01:42:16;;;;;;;8.70;1.73;;;27.80;99.90;;;;;;5054459;28;20191;-67
2023/05/13 01:44:43;;;;;;;7.37;2.30;;;27.80;99.90;;;;;;5054722;28;20211;-69
2023/05/13 01:47:11;;;;;;;8.40;2.28;;;28.10;99.90;;;;;;5054573;28;20188;-68
2023/05/13 01:49:38;;;;;;;12.07;2.22;;;28.30;99.90;;;;;;5054450;28;20219;-69
2023/05/13 01:52:06;;;;;;;5.95;2.67;;;28.20;99.90;;;;;;5054359;28;20697;-71
2023/05/13 01:54:33;;;;;;;6.70;3.30;;;27.40;99.90;;;;;;5054574;28;20696;-67
2023/05/13 01:57:00;;;;;;;4.27;2.10;;;26.00;99.90;;;;;;5069501;28;20542;-68
2023/05/13 01:59:28;;;;;;;4.67;2.23;;;25.20;99.90;;;;;;5053079;28;20176;-68
2023/05/13 02:01:55;;;;;;;8.73;2.10;;;24.40;99.90;;;;;;5054129;28;20176;-68
2023/05/13 02:04:23;;;;;;;4.90;2.07;;;23.90;99.90;;;;;;5054350;28;20217;-69
2023/05/13 02:06:50;;;;;;;6.90;2.30;;;23.20;99.90;;;;;;5052924;28;20176;-67
2023/05/13 02:09:17;;;;;;;6.80;2.07;;;22.60;99.90;;;;;;5054089;28;20215;-69
2023/05/13 02:11:46;;;;;;;12.10;2.40;;;22.30;99.90;;;;;;5054136;28;20560;-68
2023/05/13 02:14:13;;;;;;;7.27;2.13;;;22.00;99.90;;;;;;5054249;28;20184;-67
2023/05/13 02:16:41;;;;;;;9.40;2.50;;;21.90;99.90;;;;;;5054099;28;20180;-68
2023/05/13 02:19:08;;;;;;;2.97;2.00;;;21.80;99.90;;;;;;5054057;28;20208;-68
2023/05/13 02:21:35;;;;;;;4.77;1.90;;;21.70;99.90;;;;;;5053892;28;20648;-67
2023/05/13 02:24:03;;;;;;;3.80;1.60;;;21.50;99.90;;;;;;5053928;28;20180;-70
2023/05/13 02:29:52;;;;;;;6.63;2.20;;;21.50;99.90;;;;;;5053023;28;20250;-68
2023/05/13 02:32:20;;;;;;;8.67;2.30;;;21.50;99.90;;;;;;5053888;28;20172;-68
2023/05/13 02:34:47;;;;;;;4.23;2.10;;;21.40;99.90;;;;;;5053666;28;20183;-69
2023/05/13 02:37:15;;;;;;;4.37;1.93;;;21.50;99.90;;;;;;5053456;28;20188;-66
2023/05/13 02:39:42;;;;;;;4.00;1.80;;;21.40;99.90;;;;;;5053451;28;20192;-68
2023/05/13 02:42:10;;;;;;;4.80;2.20;;;21.50;99.90;;;;;;5053296;28;20579;-68
2023/05/13 02:44:37;;;;;;;5.53;2.20;;;21.30;99.90;;;;;;5052696;28;20177;-70
2023/05/13 02:47:05;;;;;;;7.93;1.90;;;21.40;99.90;;;;;;5053362;28;20181;-67
2023/05/13 02:49:32;;;;;;;3.37;2.13;;;21.30;99.90;;;;;;5053193;28;20208;-69
2023/05/13 02:51:59;;;;;;;4.67;2.03;;;21.30;99.90;;;;;;5053484;28;20548;-68
2023/05/13 02:54:27;;;;;;;5.17;1.90;;;21.30;99.90;;;;;;5053355;28;20177;-68
2023/05/13 02:56:55;;;;;;;5.87;2.23;;;21.40;99.90;;;;;;5053453;28;20184;-68
2023/05/13 02:59:22;;;;;;;4.90;1.87;;;21.40;99.90;;;;;;5053064;28;20199;-68
2023/05/13 03:01:49;;;;;;;4.33;2.00;;;21.30;99.90;;;;;;5051966;28;20539;-68
2023/05/13 03:04:17;;;;;;;7.43;2.10;;;21.30;99.90;;;;;;5053094;28;20173;-68
2023/05/13 03:06:44;;;;;;;4.93;2.03;;;21.40;99.90;;;;;;5053171;28;20232;-67
2023/05/13 03:09:11;;;;;;;3.80;2.10;;;21.40;99.90;;;;;;5052653;28;20204;-67
2023/05/13 03:11:39;;;;;;;4.53;1.83;;;21.60;99.90;;;;;;5053157;28;20270;-68
2023/05/13 03:14:06;;;;;;;5.00;1.87;;;22.30;99.90;;;;;;5052939;28;20230;-68
2023/05/13 03:16:34;;;;;;;4.40;1.77;;;22.80;99.90;;;;;;5053037;28;20640;-68
2023/05/13 03:19:01;;;;;;;5.67;2.13;;;22.40;99.90;;;;;;5052663;28;20263;-68
2023/05/13 03:21:29;;;;;;;5.63;2.17;;;22.20;99.90;;;;;;5052874;28;20179;-69
2023/05/13 03:23:56;;;;;;;5.87;2.50;;;21.90;99.90;;;;;;5052862;28;20177;-69
2023/05/13 03:26:23;;;;;;;9.13;2.30;;;21.60;99.90;;;;;;5053075;28;20190;-67
2023/05/13 03:28:51;;;;;;;7.70;2.80;;;21.20;99.90;;;;;;5052461;28;20173;-68
2023/05/13 03:31:18;;;;;;;8.33;2.20;;;20.70;99.90;;;;;;5051519;28;20212;-68
2023/05/13 03:33:46;;;;;;;7.90;2.87;;;20.20;99.90;;;;;;5052640;28;20224;-68
2023/05/13 03:36:13;;;;;;;6.83;2.40;;;19.70;99.90;;;;;;5052936;28;20315;-68
2023/05/13 03:38:41;;;;;;;5.50;2.90;;;19.30;99.90;;;;;;5052678;28;20171;-69
2023/05/13 03:41:08;;;;;;;9.80;2.87;;;18.90;99.90;;;;;;5052779;28;20696;-67
2023/05/13 03:43:43;;;;;;;7.67;3.40;;;18.80;99.90;;;;;;5052740;28;20167;-69
2023/05/13 03:46:11;;;;;;;9.10;3.57;;;18.60;99.90;;;;;;5052936;28;20187;-69
2023/05/13 03:48:38;;;;;;;6.70;3.43;;;18.40;99.90;;;;;;5052646;28;20249;-68
2023/05/13 03:51:05;;;;;;;9.63;4.00;;;18.40;99.90;;;;;;5052509;28;20208;-68
2023/05/13 03:53:33;;;;;;;14.87;4.67;;;18.30;99.90;;;;;;5051458;28;20213;-69
2023/05/13 03:56:00;;;;;;;7.70;3.93;;;18.30;99.90;;;;;;5053369;28;20203;-68
2023/05/13 03:58:28;;;;;;;13.23;4.50;;;18.30;99.90;;;;;;5056814;28;20177;-67
2023/05/13 04:00:58;;;;;;;5.60;3.57;;;18.30;99.90;;;;;;5056618;28;20181;-68
2023/05/13 04:03:26;;;;;;;7.33;2.83;;;18.20;99.90;;;;;;5056841;28;20200;-67
2023/05/13 04:05:53;;;;;;;5.47;2.70;;;18.10;99.90;;;;;;5056449;28;20173;-68
2023/05/13 04:08:21;;;;;;;5.47;3.00;;;18.10;99.90;;;;;;5056362;28;20172;-68
2023/05/13 04:10:51;;;;;;;5.50;2.60;;;18.20;99.90;;;;;;5070864;28;20225;-72
2023/05/13 04:13:19;;;;;;;6.40;2.57;;;18.30;99.90;;;;;;5075309;28;20172;-69
2023/05/13 04:15:47;;;;;;;6.23;2.80;;;18.40;99.90;;;;;;5075592;28;20211;-68
2023/05/13 04:18:14;;;;;;;5.87;2.43;;;18.50;99.90;;;;;;5075131;28;20213;-69
2023/05/13 04:20:42;;;;;;;6.37;2.37;;;18.50;99.90;;;;;;5076085;28;20533;-67
2023/05/13 04:23:09;;;;;;;9.77;3.00;;;18.60;99.90;;;;;;5076417;28;20179;-68
2023/05/13 04:25:37;;;;;;;5.77;2.50;;;18.70;99.90;;;;;;5075081;28;20198;-67
2023/05/13 04:28:05;;;;;;;6.47;2.13;;;18.70;99.90;;;;;;5075484;28;20267;-69
2023/05/13 04:30:34;;;;;;;6.23;2.10;;;18.80;99.90;;;;;;5074859;28;20226;-69
2023/05/13 04:33:02;;;;;;;7.47;2.70;;;18.90;99.90;;;;;;5074117;28;20629;-70
2023/05/13 04:35:29;;;;;;;5.47;2.40;;;18.90;99.90;;;;;;5075790;28;20175;-67
2023/05/13 04:37:57;;;;;;;5.83;2.13;;;18.80;99.90;;;;;;5075488;28;20277;-68
2023/05/13 04:40:27;;;;;;;9.23;2.93;;;18.80;99.90;;;;;;5075825;28;20208;-68
2023/05/13 04:42:55;;;;;;;5.73;2.87;;;18.80;99.90;;;;;;5076000;28;20266;-68
2023/05/13 04:45:23;;;;;;;5.73;2.77;;;18.80;99.90;;;;;;5075480;28;20177;-68
2023/05/13 04:47:51;;;;;;;7.50;2.50;;;18.70;99.90;;;;;;5074474;28;20194;-69
2023/05/13 04:50:18;;;;;;;6.93;2.60;;;18.70;99.90;;;;;;5075501;28;20682;-70
2023/05/13 04:52:46;;;;;;;8.67;2.80;;;18.70;99.90;;;;;;5075559;28;20194;-70
2023/05/13 04:55:14;;;;;;;8.30;2.83;;;18.70;99.90;;;;;;5075869;28;20179;-70
2023/05/13 04:57:41;;;;;;;9.70;2.83;;;18.70;99.90;;;;;;5074029;28;20194;-70
2023/05/13 05:00:23;;;;;;;5.93;3.13;;;18.60;99.90;;;;;;5075344;28;20247;-70
2023/05/13 05:02:54;;;;;;;6.77;2.70;;;18.60;99.90;;;;;;5075455;28;20269;-67
2023/05/13 05:05:24;;;;;;;6.47;2.47;;;18.50;99.90;;;;;;5075210;28;20230;-68
2023/05/13 05:07:52;;;;;;;9.47;2.90;;;18.40;99.90;;;;;;5074031;28;20654;-67
2023/05/13 05:10:22;;;;;;;6.93;3.00;;;18.40;99.90;;;;;;5075268;28;20207;-68
2023/05/13 05:12:51;;;;;;;4.33;2.30;;;18.30;99.90;;;;;;5073825;28;20179;-68
2023/05/13 05:15:18;;;;;;;10.80;2.60;;;18.30;99.90;;;;;;5075291;28;20186;-68
2023/05/13 05:17:48;;;;;;;6.73;2.70;;;18.30;99.90;;;;;;5075084;28;20625;-68
2023/05/13 05:20:16;;;;;;;10.50;3.80;;;18.30;99.90;;;;;;5075037;28;20193;-68
2023/05/13 05:22:43;;;;;;;6.93;3.10;;;18.10;99.90;;;;;;5075094;28;20172;-70
2023/05/13 05:25:11;;;;;;;6.67;3.00;;;18.10;99.90;;;;;;5074863;28;20176;-71
2023/05/13 05:27:38;;;;;;;7.33;3.87;;;18.00;99.90;;;;;;5074648;28;20623;-70
2023/05/13 05:30:08;;;;;;;10.30;4.33;;;17.90;99.90;;;;;;5073316;28;20223;-70
2023/05/13 05:32:35;;;;;;;9.83;5.03;;;17.70;99.90;;;;;;5074527;28;20216;-69
2023/05/13 05:35:03;;;;;;;11.70;5.70;;;17.50;99.90;;;;;;5074855;28;20183;-71
2023/05/13 05:37:31;;;;;;;9.80;5.93;;;17.30;99.90;;;;;;5074686;28;20562;-69
2023/05/13 05:40:01;;;;;;;7.60;5.20;;;17.20;99.90;;;;;;5074754;28;20172;-70
2023/05/13 05:42:28;;;;;;;7.43;4.33;;;17.10;99.90;;;;;;5074641;28;20518;-68
2023/05/13 05:44:58;;;;;;;8.57;3.87;;;17.10;99.90;;;;;;5074694;28;20180;-67
2023/05/13 05:47:26;;;;;;;6.90;3.27;;;17.10;99.90;;;;;;5074999;28;20210;-67
2023/05/13 05:49:53;;;;;;;6.67;3.27;;;17.10;99.90;;;;;;5074159;28;20214;-68
2023/05/13 05:52:24;;;;;;;6.43;3.17;;;17.10;99.90;;;;;;5072992;28;20239;-71
2023/05/13 05:54:51;;;;;;;6.30;2.87;;;17.10;99.90;;;;;;5073344;28;20649;-70
2023/05/13 05:57:22;;;;;;;8.47;3.50;;;17.10;99.90;;;;;;5074249;28;20490;-70
2023/05/13 05:59:50;;;;;;;6.73;3.70;;;17.10;99.90;;;;;;5074272;28;20176;-68
2023/05/13 06:02:17;;;;;;;6.70;3.43;;;17.10;99.90;;;;;;5073015;28;20575;-68
2023/05/13 06:04:45;;;;;;;8.80;2.67;;;17.20;99.90;;;;;;5073786;28;20181;-68
2023/05/13 06:07:13;;;;;;;3.93;2.77;;;17.10;99.90;;;;;;5073369;28;20231;-68
2023/05/13 06:09:40;;;;;;;3.93;2.57;;;17.00;99.90;;;;;;5073447;28;20207;-68
2023/05/13 06:12:08;;;;;;;6.23;2.60;;;17.00;99.90;;;;;;5072398;28;20187;-68
2023/05/13 06:14:35;;;;;;;4.93;2.50;;;17.00;99.90;;;;;;5072303;28;20188;-68
2023/05/13 06:17:04;;;;;;;2.90;2.17;;;16.90;99.90;;;;;;5064857;28;20195;-71
2023/05/13 06:19:31;;;;;;;3.40;2.10;;;16.90;99.90;;;;;;5069684;28;20199;-70
2023/05/13 06:21:59;;;;;;;4.90;2.37;;;16.90;99.90;;;;;;5071500;28;20195;-69
2023/05/13 06:24:26;;;;;;;5.47;2.67;;;16.80;99.90;;;;;;5071848;28;20185;-71
2023/05/13 06:26:53;;;;;;;5.80;3.13;;;16.80;99.90;;;;;;5072332;28;20216;-71
2023/05/13 06:29:21;;;;;;;5.97;3.17;;;16.80;99.90;;;;;;5070378;28;20586;-69
2023/05/13 06:31:54;;;;;;;5.07;3.30;;;16.60;99.90;;;;;;5072227;28;20180;-68
2023/05/13 06:34:21;;;;;;;8.80;2.97;;;16.50;99.90;;;;;;5071853;28;20225;-71
2023/05/13 06:36:55;;;;;;;4.70;2.50;;;16.40;99.90;;;;;;5070578;28;20184;-68
2023/05/13 06:39:26;;;;;;;5.33;2.20;;;16.10;99.90;;;;;;5072130;28;20534;-68
2023/05/13 06:41:54;;;;;;;9.70;2.90;;;15.90;99.90;;;;;;5071518;28;20204;-73
2023/05/13 06:44:22;;;;;;;5.33;2.90;;;15.80;99.90;;;;;;5070564;28;20549;-68
2023/05/13 06:46:52;;;;;;;6.80;3.20;;;15.70;99.90;;;;;;5071950;28;20229;-69
2023/05/13 06:49:28;;;;;;;5.93;3.17;;;15.60;99.90;;;;;;5071685;28;20200;-67
2023/05/13 06:51:55;;;;;;;4.47;3.10;;;15.50;99.90;;;;;;5071952;28;20215;-66
2023/05/13 06:54:32;;;;;;;6.00;2.77;;;15.50;99.90;;;;;;5070423;28;20653;-66
2023/05/13 06:57:04;;;;;;;5.10;2.77;;;15.40;99.90;;;;;;5070577;28;20615;-66
2023/05/13 06:59:32;;;;;;;4.20;2.77;;;15.40;99.90;;;;;;5071746;28;20164;-67
2023/05/13 07:01:59;;;;;;;7.10;2.90;;;15.40;99.90;;;;;;5071564;28;20190;-67
2023/05/13 07:04:29;;;;;;;7.10;3.33;;;15.40;99.90;;;;;;5070184;28;20184;-68
2023/05/13 07:07:06;;;;;;;4.27;2.70;;;15.40;99.90;;;;;;5069318;28;20658;-70
2023/05/13 07:09:34;;;;;;;5.40;2.77;;;15.30;99.90;;;;;;5071106;28;20218;-71
2023/05/13 07:12:01;;;;;;;5.63;3.53;;;15.30;99.90;;;;;;5071761;28;20192;-70
2023/05/13 07:14:35;;;;;;;5.07;2.97;;;15.30;99.90;;;;;;5068420;28;20192;-67
2023/05/13 07:17:05;;;;;;;10.17;3.13;;;15.30;99.90;;;;;;5071100;28;20179;-69
2023/05/13 07:19:32;;;;;;;4.93;2.90;;;15.20;99.90;;;;;;5070173;28;20187;-71
2023/05/13 07:22:00;;;;;;;6.37;3.30;;;15.20;99.90;;;;;;5070964;28;20187;-70
2023/05/13 07:24:27;;;;;;;5.23;2.67;;;15.20;99.90;;;;;;5071238;28;20317;-70
2023/05/13 07:26:55;;;;;;;6.20;3.50;;;15.10;99.90;;;;;;5069610;28;20203;-72
2023/05/13 07:29:22;;;;;;;4.80;3.13;;;15.10;99.90;;;;;;5069741;28;20214;-72
2023/05/13 07:31:49;;;;;;;5.20;3.10;;;15.10;99.90;;;;;;5070207;28;20191;-71
2023/05/13 07:34:17;;;;;;;4.40;3.27;;;15.10;99.90;;;;;;5070977;28;20231;-70
2023/05/13 07:36:44;;;;;;;5.43;3.40;;;15.10;99.90;;;;;;5070462;28;20192;-71
2023/05/13 07:39:12;;;;;;;9.00;4.27;;;15.00;99.90;;;;;;5070592;28;20185;-70
2023/05/13 07:41:39;;;;;;;11.50;8.83;;;15.10;99.90;;;;;;5070291;28;20180;-68
2023/05/13 07:44:10;;;;;;;13.07;7.00;;;15.10;99.90;;;;;;5070508;28;20198;-71
2023/05/13 07:46:38;;;;;;;11.43;7.67;;;15.10;99.90;;;;;;5067773;28;20203;-72
2023/05/13 07:49:07;;;;;;;9.67;7.97;;;15.10;99.90;;;;;;5070917;28;20255;-72
2023/05/13 07:51:36;;;;;;;12.47;8.97;;;15.20;99.90;;;;;;5070164;28;20179;-71
2023/05/13 07:54:03;;;;;;;15.13;7.53;;;15.10;99.90;;;;;;5071104;28;20172;-67
2023/05/13 07:56:31;;;;;;;10.37;7.30;;;15.10;99.90;;;;;;5070961;28;20535;-71
2023/05/13 07:58:58;;;;;;;8.43;6.87;;;15.10;99.90;;;;;;5070420;28;20164;-71
2023/05/13 08:01:26;;;;;;;10.80;7.20;;;15.00;99.90;;;;;;5070572;28;20212;-71
2023/05/13 08:03:53;;;;;;;8.20;6.70;;;15.00;99.90;;;;;;5070684;28;20180;-70
2023/05/13 08:06:20;;;;;;;9.73;6.70;;;15.00;99.90;;;;;;5071006;28;20247;-71
2023/05/13 08:08:48;;;;;;;8.67;6.73;;;15.00;99.90;;;;;;5070753;28;20190;-71
2023/05/13 08:11:15;;;;;;;9.03;6.40;;;15.00;99.90;;;;;;5069075;28;20211;-71
2023/05/13 08:13:42;;;;;;;8.90;6.53;;;15.00;99.90;;;;;;5070804;28;20187;-69
2023/05/13 08:16:10;;;;;;;7.30;6.50;;;14.90;99.90;;;;;;5070543;28;20172;-71
2023/05/13 08:18:37;;;;;;;10.90;6.90;;;14.90;99.90;;;;;;5070263;28;20168;-71
2023/05/13 08:21:04;;;;;;;7.50;6.27;;;14.90;99.90;;;;;;5070469;28;20180;-70
2023/05/13 08:23:32;;;;;;;11.80;7.27;;;14.90;99.90;;;;;;5070917;28;20268;-72
2023/05/13 08:26:00;;;;;;;6.97;6.27;;;14.90;99.90;;;;;;5070190;28;20225;-69
2023/05/13 08:28:28;;;;;;;8.63;6.13;;;14.90;99.90;;;;;;5070533;28;20176;-71
2023/05/13 08:31:01;;;;;;;9.00;6.47;;;14.90;99.90;;;;;;5070451;28;20211;-70
2023/05/13 08:33:33;;;;;;;7.17;6.47;;;14.80;99.90;;;;;;5070512;28;20263;-70
2023/05/13 08:36:01;;;;;;;8.30;6.37;;;14.80;99.90;;;;;;5070518;28;20249;-70
2023/05/13 08:38:28;;;;;;;6.70;6.00;;;14.70;99.90;;;;;;5070574;28;20659;-69
2023/05/13 08:40:56;;;;;;;6.53;5.23;;;14.70;99.90;;;;;;5070105;28;20206;-70
2023/05/13 08:43:27;;;;;;;8.40;6.77;;;14.70;99.90;;;;;;5072968;28;20180;-69
2023/05/13 08:45:56;;;;;;;13.77;7.20;;;14.70;99.90;;;;;;5074389;28;20202;-67
2023/05/13 08:48:24;;;;;;;9.70;6.83;;;14.60;99.90;;;;;;5073900;28;20180;-69
2023/05/13 08:50:52;;;;;;;6.93;5.93;;;14.60;99.90;;;;;;5074045;28;20211;-68
2023/05/13 08:53:21;;;;;;;8.73;7.13;;;14.60;99.90;;;;;;5074013;28;20195;-67
2023/05/13 08:55:51;;;;;;;9.83;6.97;;;14.50;99.90;;;;;;5073985;28;20180;-70
2023/05/13 08:58:18;;;;;;;8.73;6.43;;;14.50;99.90;;;;;;5073773;28;20183;-71
2023/05/13 09:00:47;;;;;;;8.50;6.07;;;14.40;99.90;;;;;;5074018;28;20207;-70
2023/05/13 09:03:15;;;;;;;7.60;5.87;;;14.40;99.90;;;;;;5073808;28;20769;-72
2023/05/13 09:05:46;;;;;;;9.73;7.00;;;14.40;99.90;;;;;;5073767;28;20226;-67
2023/05/13 09:08:14;;;;;;;7.63;6.93;;;14.50;99.90;;;;;;5072517;28;20587;-70
2023/05/13 09:10:41;;;;;;;12.50;8.17;;;14.50;99.90;;;;;;5073582;28;20219;-69
2023/05/13 09:13:11;;;;;;;12.23;8.73;;;14.50;99.90;;;;;;5073642;28;20652;-67
2023/05/13 09:15:42;;;;;;;12.03;8.83;;;14.50;99.90;;;;;;5073132;28;20231;-70
2023/05/13 09:18:09;;;;;;;12.23;9.77;;;14.60;99.90;;;;;;5073309;28;20211;-67
2023/05/13 09:20:37;;;;;;;11.23;9.63;;;14.60;99.90;;;;;;5073671;28;20238;-69
2023/05/13 09:23:10;;;;;;;14.47;9.40;;;14.60;99.90;;;;;;5073544;28;20307;-72
2023/05/13 09:25:38;;;;;;;11.07;8.17;;;14.70;99.90;;;;;;5073790;28;20255;-72
2023/05/13 09:28:07;;;;;;;13.87;9.57;;;14.70;99.90;;;;;;5073239;28;20176;-71
2023/05/13 09:30:44;;;;;;;9.83;8.23;;;14.70;99.90;;;;;;5073123;28;20255;-69
2023/05/13 09:33:11;;;;;;;13.43;8.93;;;14.60;99.90;;;;;;5073027;28;20254;-70
2023/05/13 09:35:51;;;;;;;13.00;9.00;;;14.70;99.90;;;;;;5072330;28;20180;-69
2023/05/13 09:38:20;;;;;;;11.40;7.17;;;14.70;99.90;;;;;;5073182;28;20645;-71
2023/05/13 09:40:55;;;;;;;13.83;9.10;;;14.80;99.90;;;;;;5073381;28;20176;-68
2023/05/13 09:43:25;;;;;;;12.90;8.37;;;14.80;99.90;;;;;;5053023;28;20191;-67
2023/05/13 09:46:03;;;;;;;13.97;9.20;;;14.80;99.90;;;;;;5053163;28;20513;-70
2023/05/13 09:48:35;;;;;;;11.03;8.90;;;14.80;99.90;;;;;;5069926;28;20195;-68
2023/05/13 09:51:02;;;;;;;10.77;8.30;;;14.80;99.90;;;;;;5073077;28;20241;-68
2023/05/13 09:53:31;;;;;;;10.43;8.40;;;14.80;99.90;;;;;;5071370;28;20321;-70
2023/05/13 09:56:00;;;;;;;12.57;8.93;;;14.90;99.90;;;;;;5072814;28;20187;-69
2023/05/13 09:58:29;;;;;;;12.90;8.90;;;14.90;99.90;;;;;;5073006;28;20184;-71
2023/05/13 10:00:57;;;;;;;12.17;8.33;;;14.90;99.90;;;;;;5072936;28;20175;-68
2023/05/13 10:03:27;;;;;;;12.03;7.87;;;15.00;99.90;;;;;;5072764;28;20191;-72
2023/05/13 10:05:56;;;;;;;13.37;8.20;;;14.90;99.90;;;;;;5071525;28;20180;-70
2023/05/13 10:08:24;;;;;;;26.30;12.87;;;14.90;99.90;;;;;;5072319;28;20176;-70
2023/05/13 10:10:54;;;;;;;13.30;9.10;;;14.90;99.90;;;;;;5072258;28;20627;-71
2023/05/13 10:13:24;;;;;;;12.60;8.33;;;14.90;99.90;;;;;;5072407;28;20227;-68
2023/05/13 10:15:52;;;;;;;14.63;8.60;;;14.90;99.90;;;;;;5072577;28;20207;-72
2023/05/13 10:18:21;;;;;;;12.00;9.40;;;14.90;99.90;;;;;;5072467;28;20183;-68
2023/05/13 10:20:54;;;;;;;13.83;9.00;;;14.80;99.90;;;;;;5072305;28;20887;-71
2023/05/13 10:23:23;;;;;;;15.80;9.73;;;14.90;99.90;;;;;;5072565;28;20700;-71
2023/05/13 10:25:55;;;;;;;10.50;8.83;;;14.80;99.90;;;;;;5071090;28;20333;-72
2023/05/13 10:28:24;;;;;;;26.57;9.93;;;14.70;99.90;;;;;;5072359;28;20168;-72
2023/05/13 10:30:51;;;;;;;11.27;7.73;;;14.80;99.90;;;;;;5072345;28;20759;-72
2023/05/13 10:33:19;;;;;;;17.67;9.40;;;14.70;99.90;;;;;;5071781;28;20231;-70
2023/05/13 10:36:12;;;;;;;11.57;8.00;;;14.70;99.90;;;;;;5072355;28;20197;-70
2023/05/13 10:39:01;;;;;;;13.13;8.90;;;14.70;99.90;;;;;;5053227;28;20195;-71
2023/05/13 10:42:01;;;;;;;14.87;10.03;;;14.60;99.90;;;;;;5072153;28;20180;-70
2023/05/13 10:44:30;;;;;;;10.50;8.53;;;14.60;99.90;;;;;;5071001;28;20188;-69
2023/05/13 10:46:57;;;;;;;10.70;8.87;;;14.50;99.90;;;;;;5071941;28;20199;-71
2023/05/13 10:49:33;;;;;;;10.33;8.63;;;14.50;99.90;;;;;;5071903;28;20204;-72
2023/05/13 10:52:06;;;;;;;14.00;9.37;;;14.50;99.90;;;;;;5072069;28;20171;-71
2023/05/13 10:54:43;;;;;;;16.50;11.17;;;14.50;99.90;;;;;;5071962;28;20262;-73
2023/05/13 10:57:12;;;;;;;16.13;11.97;;;14.60;99.90;;;;;;5071630;28;20171;-69
2023/05/13 11:00:14;;;;;;;18.33;11.30;;;14.60;99.90;;;;;;5071942;28;20172;-73
2023/05/13 11:02:42;;;;;;;23.10;15.07;;;14.70;99.90;;;;;;5071897;28;20707;-71
2023/05/13 11:05:09;;;;;;;18.90;14.43;;;14.80;99.90;;;;;;5070883;28;20183;-72
2023/05/13 11:07:39;;;;;;;18.90;14.03;;;14.80;99.90;;;;;;5071398;28;20236;-71
2023/05/13 11:10:28;;;;;;;16.17;12.90;;;14.80;99.90;;;;;;5071355;28;20727;-72
2023/05/13 11:13:14;;;;;;;17.43;13.83;;;14.80;99.90;;;;;;5071765;28;20512;-70
2023/05/13 11:15:52;;;;;;;17.13;12.43;;;14.80;99.90;;;;;;5071399;28;20186;-71
2023/05/13 11:18:28;;;;;;;17.80;12.63;;;14.80;99.90;;;;;;5071677;28;20168;-71
2023/05/13 11:21:01;;;;;;;16.43;12.40;;;14.90;99.90;;;;;;5070692;28;20178;-72
2023/05/13 11:23:28;;;;;;;12.90;11.37;;;14.90;99.90;;;;;;5071808;28;20179;-70
2023/05/13 11:26:15;;;;;;;13.97;11.80;;;15.10;99.90;;;;;;5071652;28;20165;-72
2023/05/13 11:29:03;;;;;;;13.70;11.67;;;15.00;99.90;;;;;;5071498;28;20725;-73
2023/05/13 11:31:49;;;;;;;15.57;12.63;;;15.10;99.90;;;;;;5071645;28;20300;-71
2023/05/13 11:34:18;;;;;;;11.80;10.60;;;14.90;99.90;;;;;;5071432;28;20578;-71
2023/05/13 11:36:52;;;;;;;17.20;12.80;;;14.90;99.90;;;;;;5071595;28;20171;-71
2023/05/13 11:39:21;;;;;;;16.63;11.70;;;14.90;99.90;;;;;;5069212;28;20501;-67
2023/05/13 11:41:53;;;;;;;14.47;12.10;;;14.90;99.90;;;;;;5071070;28;20221;-68
2023/05/13 11:44:23;;;;;;;12.33;10.53;;;15.00;99.90;;;;;;5070938;28;20184;-66
2023/05/13 11:46:51;;;;;;;17.17;13.77;;;15.00;99.90;;;;;;5070739;28;20187;-66
2023/05/13 11:49:35;;;;;;;16.57;14.17;;;14.90;99.90;;;;;;5069350;28;20694;-70
2023/05/13 11:52:05;;;;;;;15.80;13.50;;;14.90;99.90;;;;;;5070801;28;20583;-69
2023/05/13 11:54:40;;;;;;;16.70;13.67;;;14.90;99.90;;;;;;5071035;28;20168;-70
2023/05/13 11:57:17;;;;;;;17.23;13.50;;;14.80;99.90;;;;;;5070811;28;20191;-70
2023/05/13 12:00:12;;;;;;;16.53;12.43;;;14.90;99.90;;;;;;5071209;28;20194;-70
2023/05/13 12:02:40;;;;;;;15.53;11.83;;;14.90;99.90;;;;;;5069959;28;20192;-67
2023/05/13 12:05:11;;;;;;;13.80;12.13;;;14.90;99.90;;;;;;5071303;28;20638;-70
2023/05/13 12:07:40;;;;;;;27.30;15.93;;;14.90;99.90;;;;;;5070693;28;20184;-68
2023/05/13 12:10:08;;;;;;;26.57;15.60;;;15.00;99.90;;;;;;5069415;28;20215;-69
2023/05/13 12:12:39;;;;;;;21.60;15.80;;;15.00;99.90;;;;;;5070977;28;20184;-70
2023/05/13 12:15:17;;;;;;;20.73;13.40;;;14.90;99.90;;;;;;5070797;28;20252;-69
2023/05/13 12:17:46;;;;;;;19.30;13.70;;;14.90;99.90;;;;;;5072694;28;20188;-69
2023/05/13 12:20:14;;;;;;;18.60;13.77;;;14.90;99.90;;;;;;5074907;28;20195;-70
2023/05/13 12:22:44;;;;;;;17.00;12.20;;;14.90;99.90;;;;;;5074981;28;20184;-71
2023/05/13 12:25:39;;;;;;;17.23;11.87;;;14.90;99.90;;;;;;5074539;28;20176;-70
2023/05/13 12:28:11;;;;;;;13.87;11.37;;;14.90;99.90;;;;;;5074357;28;20191;-70
2023/05/13 12:30:41;;;;;;;15.10;10.77;;;15.00;99.90;;;;;;5074525;28;20211;-71
2023/05/13 12:33:16;;;;;;;17.53;12.10;;;15.00;99.90;;;;;;5073743;28;20223;-70
2023/05/13 12:35:47;;;;;;;14.63;10.87;;;14.90;99.90;;;;;;5073849;28;20261;-69
2023/05/13 12:38:17;;;;;;;13.20;10.87;;;14.90;99.90;;;;;;5073926;28;20191;-68
2023/05/13 12:40:49;;;;;;;12.40;10.13;;;14.90;99.90;;;;;;5074626;28;20180;-68
2023/05/13 12:43:18;;;;;;;14.27;10.20;;;14.80;99.90;;;;;;5074312;28;20226;-68
2023/05/13 12:45:47;;;;;;;17.60;9.70;;;14.90;99.90;;;;;;5074154;28;20172;-70
2023/05/13 12:48:14;;;;;;;13.27;9.70;;;14.80;99.90;;;;;;5073870;28;20222;-67
2023/05/13 12:50:42;;;;;;;13.57;9.47;;;14.80;99.90;;;;;;5074089;28;20295;-70
2023/05/13 12:53:09;;;;;;;11.47;9.73;;;14.80;99.90;;;;;;5073510;28;20624;-67
2023/05/13 12:55:38;;;;;;;14.03;10.23;;;14.70;99.90;;;;;;5073970;28;20188;-67
2023/05/13 12:58:11;;;;;;;11.90;9.10;;;14.70;99.90;;;;;;5073943;28;20179;-67
2023/05/13 13:00:39;;;;;;;14.10;9.00;;;14.70;99.90;;;;;;5074637;28;20656;-67